Time;durP1;ratioP1;P1;durP2;ratioP2;P2;SDS_P1;SDS_P2;PMS_P1;PMS_P2;Temp;Humidity;BMP_temperature;BMP_pressure;BME280_temperature;BME280_humidity;BME280_pressure;Samples;Min_cycle;Max_cycle;Signal;HPM_P1;HPM_P2
2021/10/13 00:01:22;;;;;;;0.10;0.10;;;;;;;13.23;62.47;102466.69;5053325;28;20083;-87
2021/10/13 00:03:48;;;;;;;0.10;0.10;;;;;;;13.20;62.62;102475.59;5052956;28;20132;-87
2021/10/13 00:06:15;;;;;;;0.10;0.10;;;;;;;13.18;62.92;102477.34;5054088;28;20808;-86
2021/10/13 00:08:45;;;;;;;0.10;0.10;;;;;;;13.17;62.81;102470.28;5054501;28;20033;-86
2021/10/13 00:11:12;;;;;;;0.10;0.10;;;;;;;13.16;62.66;102468.50;5054378;28;20053;-87
2021/10/13 00:13:39;;;;;;;0.20;0.20;;;;;;;13.17;62.63;102464.97;5053494;28;20437;-87
2021/10/13 00:16:16;;;;;;;0.05;0.05;;;;;;;13.21;62.59;102461.38;5054598;28;20163;-86
2021/10/13 00:18:47;;;;;;;0.10;0.10;;;;;;;13.22;63.25;102451.63;5053592;28;20120;-87
2021/10/13 00:21:15;;;;;;;0.05;0.05;;;;;;;13.24;62.95;102444.50;5053462;28;20056;-87
2021/10/13 00:23:43;;;;;;;0.10;0.10;;;;;;;13.23;63.13;102448.06;5054067;28;20033;-87
2021/10/13 00:26:11;;;;;;;0.10;0.10;;;;;;;13.21;62.76;102448.06;5050149;28;20571;-87
2021/10/13 00:28:37;;;;;;;0.10;0.10;;;;;;;13.17;63.12;102443.69;5052583;28;20392;-87
2021/10/13 00:31:05;;;;;;;2.28;0.73;;;;;;;13.15;63.17;102444.56;5053045;28;20101;-87
2021/10/13 00:33:31;;;;;;;0.10;0.10;;;;;;;13.10;63.18;102447.25;5054530;28;20025;-87
2021/10/13 00:35:59;;;;;;;0.10;0.10;;;;;;;13.08;63.21;102449.03;5052607;28;20386;-88
2021/10/13 00:38:29;;;;;;;0.10;0.10;;;;;;;13.05;63.36;102459.69;5049765;28;20035;-87
2021/10/13 00:40:56;;;;;;;0.10;0.10;;;;;;;13.06;63.39;102459.69;5055456;28;20025;-87
2021/10/13 00:43:23;;;;;;;0.10;0.10;;;;;;;13.04;63.63;102458.78;5056409;28;20115;-87
2021/10/13 00:45:52;;;;;;;0.20;0.20;;;;;;;13.05;63.50;102465.03;5055731;28;20035;-87
2021/10/13 00:48:21;;;;;;;0.13;0.13;;;;;;;13.05;64.21;102465.88;5055739;28;20029;-87
2021/10/13 00:50:49;;;;;;;0.10;0.10;;;;;;;13.10;63.96;102471.19;5052782;28;20027;-87
2021/10/13 00:53:20;;;;;;;0.10;0.10;;;;;;;13.12;63.69;102466.75;5055659;28;20079;-87
2021/10/13 00:55:47;;;;;;;0.10;0.10;;;;;;;13.08;64.17;102471.22;5053777;28;20095;-87
2021/10/13 00:58:14;;;;;;;0.10;0.10;;;;;;;13.11;63.34;102467.66;5055798;28;20025;-86
2021/10/13 01:00:45;;;;;;;0.10;0.10;;;;;;;13.14;63.77;102474.75;5055525;28;20037;-87
2021/10/13 01:03:36;;;;;;;0.10;0.10;;;;;;;13.25;63.65;102473.78;5053951;28;20446;-87
2021/10/13 01:06:19;;;;;;;0.10;0.10;;;;;;;13.27;63.87;102481.75;5054678;28;20104;-87
2021/10/13 01:14:31;;;;;;;0.10;0.10;;;;;;;13.36;63.69;102471.06;5070753;27;20513;-87
2021/10/13 01:17:11;;;;;;;0.10;0.10;;;;;;;13.35;64.03;102460.44;5048786;28;20112;-87
2021/10/13 01:19:52;;;;;;;0.10;0.10;;;;;;;13.39;63.35;102463.09;5049712;28;20028;-86
2021/10/13 01:22:42;;;;;;;0.15;0.15;;;;;;;13.40;63.62;102461.31;5033463;28;20400;-86
2021/10/13 01:25:38;;;;;;;0.10;0.10;;;;;;;13.39;63.42;102463.09;5029205;28;20029;-86
2021/10/13 01:28:10;;;;;;;0.10;0.10;;;;;;;13.28;63.54;102459.56;5030147;28;20036;-87
2021/10/13 01:30:44;;;;;;;0.10;0.10;;;;;;;13.24;63.41;102460.47;5030837;28;20076;-87
2021/10/13 01:33:26;;;;;;;0.10;0.10;;;;;;;13.17;63.21;102453.41;5028834;28;20111;-87
2021/10/13 01:35:59;;;;;;;0.10;0.10;;;;;;;13.08;63.32;102457.91;5027689;28;20113;-87
2021/10/13 01:38:27;;;;;;;;;;;;;;;13.14;64.00;102451.66;5029733;28;20374;-86
2021/10/13 01:40:58;;;;;;;0.10;0.10;;;;;;;12.94;63.76;102462.41;5029493;28;19917;-86
2021/10/13 01:43:26;;;;;;;0.10;0.10;;;;;;;12.86;63.35;102465.09;5030589;28;20037;-87
2021/10/13 01:45:54;;;;;;;0.10;0.10;;;;;;;12.79;63.42;102466.00;5028166;28;20044;-86
2021/10/13 01:48:23;;;;;;;0.10;0.10;;;;;;;12.74;63.35;102473.97;5027780;28;20088;-87
2021/10/13 01:50:52;;;;;;;0.10;0.10;;;;;;;12.67;63.75;102471.34;5029213;28;20034;-86
2021/10/13 01:53:22;;;;;;;0.10;0.10;;;;;;;12.63;64.07;102473.13;5028707;28;20485;-87
2021/10/13 01:55:51;;;;;;;0.05;0.05;;;;;;;12.58;64.23;102483.75;5028051;28;20030;-86
2021/10/13 01:58:20;;;;;;;0.10;0.10;;;;;;;12.58;64.89;102483.75;5028923;28;20448;-86
2021/10/13 02:00:50;;;;;;;0.10;0.10;;;;;;;12.58;64.69;102486.41;5028233;28;20037;-86
2021/10/13 02:03:20;;;;;;;0.10;0.10;;;;;;;12.59;64.60;102488.19;5027437;28;20481;-86
2021/10/13 02:05:53;;;;;;;0.10;0.10;;;;;;;12.59;64.71;102493.50;5026605;28;20037;-87
2021/10/13 02:08:22;;;;;;;0.10;0.10;;;;;;;12.53;64.32;102498.84;5029146;28;20080;-86
2021/10/13 02:10:53;;;;;;;0.10;0.10;;;;;;;12.53;64.12;102485.56;5025941;28;20029;-86
2021/10/13 02:13:22;;;;;;;0.10;0.10;;;;;;;12.54;64.72;102494.44;5028815;28;20065;-87
2021/10/13 02:15:53;;;;;;;0.10;0.10;;;;;;;12.56;65.16;102504.19;5028440;28;20030;-84
2021/10/13 02:18:25;;;;;;;0.10;0.10;;;;;;;12.56;64.65;102504.19;5028645;28;20109;-86
2021/10/13 02:20:54;;;;;;;0.10;0.10;;;;;;;12.56;64.60;102508.59;5026688;28;20464;-87
2021/10/13 02:23:24;;;;;;;0.00;0.00;;;;;;;12.53;65.02;102514.78;5028209;28;20029;-86
2021/10/13 02:25:53;;;;;;;0.10;0.10;;;;;;;12.56;65.10;102509.50;5015119;28;20026;-86
2021/10/13 02:28:40;;;;;;;0.35;0.35;;;;;;;12.67;64.90;102511.25;5015304;28;20058;-86
2021/10/13 02:31:07;;;;;;;0.10;0.10;;;;;;;12.67;64.46;102516.56;5014998;28;20041;-87
2021/10/13 02:33:48;;;;;;;0.08;0.08;;;;;;;12.78;64.90;102509.44;5014901;28;20029;-86
2021/10/13 02:36:17;;;;;;;0.70;0.68;;;;;;;12.79;64.68;102513.88;5014909;28;20785;-86
2021/10/13 02:38:43;;;;;;;0.10;0.10;;;;;;;12.82;64.48;102516.50;5014953;28;20037;-86
2021/10/13 02:41:12;;;;;;;0.10;0.10;;;;;;;12.85;64.50;102515.66;5014661;28;20116;-86
2021/10/13 02:43:45;;;;;;;0.70;0.70;;;;;;;12.90;65.29;102514.72;5008661;28;20110;-86
2021/10/13 02:46:34;;;;;;;0.10;0.10;;;;;;;12.95;64.59;102504.06;5007323;28;20026;-87
2021/10/13 02:49:40;;;;;;;0.03;0.03;;;;;;;12.95;65.53;102512.94;5013752;28;20109;-86
2021/10/13 02:54:58;;;;;;;0.10;0.10;;;;;;;12.91;65.54;102511.19;5078463;27;20456;-87
2021/10/13 02:57:46;;;;;;;0.20;0.20;;;;;;;12.88;66.08;102519.16;5069590;28;20033;-86
2021/10/13 03:00:15;;;;;;;0.10;0.10;;;;;;;12.93;65.51;102520.06;5067256;28;20090;-85
2021/10/13 03:03:07;;;;;;;0.10;0.10;;;;;;;12.91;66.46;102521.81;5059082;28;20200;-86
2021/10/13 03:05:37;;;;;;;0.10;0.10;;;;;;;12.89;65.83;102512.94;5060749;28;20052;-86
2021/10/13 03:08:08;;;;;;;0.10;0.10;;;;;;;12.97;66.74;102512.03;5063334;28;20021;-87
2021/10/13 03:10:36;;;;;;;0.10;0.10;;;;;;;13.04;65.34;102516.47;5057880;28;20041;-85
2021/10/13 03:13:06;;;;;;;0.10;0.10;;;;;;;13.08;65.84;102519.13;5062355;28;20033;-87
2021/10/13 03:15:35;;;;;;;0.10;0.10;;;;;;;13.12;65.45;102509.31;5060142;28;20021;-86
2021/10/13 03:18:09;;;;;;;0.10;0.10;;;;;;;13.12;66.32;102525.28;5054128;28;20098;-86
2021/10/13 03:20:37;;;;;;;0.10;0.10;;;;;;;13.17;65.90;102527.94;5063299;28;20025;-86
2021/10/13 03:23:05;;;;;;;0.10;0.10;;;;;;;13.16;66.10;102536.81;5056494;28;20546;-86
2021/10/13 03:25:33;;;;;;;0.10;0.10;;;;;;;13.17;65.62;102534.16;5066566;28;20024;-86
2021/10/13 03:28:03;;;;;;;0.10;0.10;;;;;;;13.16;65.83;102543.03;5053114;28;20024;-86
2021/10/13 03:30:30;;;;;;;0.10;0.10;;;;;;;13.18;65.91;102543.88;5062334;28;20087;-86
2021/10/13 03:32:56;;;;;;;0.10;0.10;;;;;;;13.26;65.69;102538.56;5060469;28;20376;-86
2021/10/13 03:38:10;;;;;;;0.10;0.10;;;;;;;13.34;65.25;102538.53;5078277;27;20430;-86
2021/10/13 03:40:36;;;;;;;0.10;0.10;;;;;;;13.37;65.20;102535.84;5069774;28;20440;-86
2021/10/13 03:43:03;;;;;;;0.22;0.22;;;;;;;13.36;65.12;102524.31;5050086;28;20469;-86
2021/10/13 03:45:30;;;;;;;0.10;0.10;;;;;;;13.43;64.90;102526.09;5034791;28;20116;-86
2021/10/13 03:47:56;;;;;;;0.10;0.10;;;;;;;13.46;65.30;102529.63;5049389;28;20053;-86
2021/10/13 03:50:23;;;;;;;0.10;0.10;;;;;;;13.41;64.99;102533.19;5043530;28;20120;-86
2021/10/13 03:52:50;;;;;;;0.00;0.00;;;;;;;13.43;64.39;102531.41;5035607;28;20053;-86
2021/10/13 03:55:18;;;;;;;0.10;0.10;;;;;;;13.44;64.69;102537.63;5045152;28;20029;-86
2021/10/13 03:57:44;;;;;;;0.10;0.10;;;;;;;13.44;64.72;102532.28;5033053;28;20026;-86
2021/10/13 04:00:14;;;;;;;0.00;0.00;;;;;;;13.44;64.75;102532.28;5049594;28;20029;-86
2021/10/13 04:02:40;;;;;;;0.10;0.10;;;;;;;13.43;64.86;102547.41;5050013;28;20018;-86
2021/10/13 04:05:07;;;;;;;0.10;0.10;;;;;;;13.36;64.88;102545.63;5037670;28;20034;-85
2021/10/13 04:07:34;;;;;;;0.10;0.10;;;;;;;13.37;64.71;102530.50;5046087;28;20060;-86
2021/10/13 04:10:01;;;;;;;0.05;0.05;;;;;;;13.35;64.40;102527.00;5049529;28;20036;-85
2021/10/13 04:12:29;;;;;;;14.80;1.45;;;;;;;13.41;64.41;102532.31;5049484;28;20121;-86
2021/10/13 04:14:55;;;;;;;0.10;0.10;;;;;;;13.43;64.64;102535.84;5040274;28;20029;-86
2021/10/13 04:17:21;;;;;;;0.10;0.10;;;;;;;13.46;64.84;102532.28;5044309;28;20029;-86
2021/10/13 04:19:48;;;;;;;0.10;0.10;;;;;;;13.47;64.40;102526.06;5044342;28;20105;-86
2021/10/13 04:22:14;;;;;;;0.10;0.10;;;;;;;13.45;63.97;102515.44;5049379;28;20025;-86
2021/10/13 04:24:40;;;;;;;0.10;0.10;;;;;;;13.47;64.23;102534.94;5049635;28;20033;-85
2021/10/13 04:27:06;;;;;;;0.10;0.10;;;;;;;13.47;64.34;102532.28;5049953;28;20029;-86
2021/10/13 04:29:32;;;;;;;0.10;0.10;;;;;;;13.44;64.20;102526.97;5033354;28;20036;-86
2021/10/13 04:31:59;;;;;;;0.10;0.10;;;;;;;13.38;64.03;102521.66;5036852;28;20036;-86
2021/10/13 04:34:25;;;;;;;0.10;0.10;;;;;;;13.34;63.72;102526.09;5036562;28;20379;-86
2021/10/13 04:36:51;;;;;;;0.10;0.10;;;;;;;13.30;63.86;102539.44;5047678;28;20041;-87
2021/10/13 04:39:17;;;;;;;0.03;0.03;;;;;;;13.24;64.19;102529.69;5035962;28;20041;-86
2021/10/13 04:41:44;;;;;;;0.10;0.10;;;;;;;13.23;64.48;102528.81;5046617;28;20754;-86
2021/10/13 04:44:10;;;;;;;0.10;0.10;;;;;;;13.22;64.44;102540.34;5049610;28;20523;-86
2021/10/13 04:46:36;;;;;;;0.10;0.10;;;;;;;13.23;64.65;102539.47;5047896;28;20104;-85
2021/10/13 04:49:03;;;;;;;0.20;0.20;;;;;;;13.22;64.64;102537.69;5037807;28;20034;-86
2021/10/13 04:51:29;;;;;;;0.10;0.10;;;;;;;13.23;64.70;102531.47;5035084;28;20030;-86
2021/10/13 04:53:55;;;;;;;0.00;0.00;;;;;;;13.22;64.42;102535.03;5020855;28;20113;-86
2021/10/13 04:56:21;;;;;;;0.10;0.10;;;;;;;13.22;64.38;102532.38;5029400;28;20081;-85
2021/10/13 04:58:47;;;;;;;2.35;1.10;;;;;;;13.20;64.64;102535.94;5025626;28;20045;-86
2021/10/13 05:01:14;;;;;;;0.10;0.10;;;;;;;13.19;65.00;102532.38;5022460;28;20057;-85
2021/10/13 05:03:40;;;;;;;0.10;0.10;;;;;;;13.20;64.78;102533.25;5032111;28;20439;-86
2021/10/13 05:06:06;;;;;;;0.10;0.10;;;;;;;13.17;65.12;102542.16;5027218;28;20044;-86
2021/10/13 05:08:32;;;;;;;0.10;0.10;;;;;;;13.12;64.55;102543.91;5035820;28;20029;-87
2021/10/13 05:10:58;;;;;;;0.10;0.10;;;;;;;13.11;64.73;102539.50;5035441;28;20088;-87
2021/10/13 05:13:25;;;;;;;0.15;0.15;;;;;;;13.10;64.77;102543.06;5020638;28;20038;-86
2021/10/13 05:15:51;;;;;;;0.00;0.00;;;;;;;13.10;64.90;102543.06;5032076;28;20037;-86
2021/10/13 05:18:17;;;;;;;0.10;0.10;;;;;;;13.06;64.84;102547.50;5021189;28;20033;-87
2021/10/13 05:20:44;;;;;;;0.10;0.10;;;;;;;13.09;64.81;102546.59;5025675;28;20064;-87
2021/10/13 05:23:10;;;;;;;0.10;0.10;;;;;;;13.12;64.92;102543.91;5027924;28;20469;-86
2021/10/13 05:25:36;;;;;;;0.10;0.10;;;;;;;13.13;64.61;102539.50;5031559;28;20076;-86
2021/10/13 05:28:03;;;;;;;0.10;0.10;;;;;;;13.13;64.81;102550.13;5035202;28;20076;-86
2021/10/13 05:30:29;;;;;;;0.10;0.10;;;;;;;13.14;64.74;102550.13;5034983;28;20025;-86
2021/10/13 05:32:55;;;;;;;0.10;0.10;;;;;;;13.11;65.41;102545.69;5034987;28;20140;-86
2021/10/13 05:35:21;;;;;;;0.05;0.05;;;;;;;13.13;64.78;102539.50;5020293;28;20025;-86
2021/10/13 05:37:47;;;;;;;0.10;0.10;;;;;;;13.09;65.20;102551.91;5031219;28;20112;-86
2021/10/13 05:40:13;;;;;;;0.00;0.00;;;;;;;13.08;65.36;102555.47;5020812;28;20021;-87
2021/10/13 05:42:40;;;;;;;0.00;0.00;;;;;;;13.06;65.04;102558.13;5030114;28;20021;-86
2021/10/13 05:45:06;;;;;;;0.00;0.00;;;;;;;13.03;65.02;102557.25;5034567;28;20034;-86
2021/10/13 05:47:33;;;;;;;0.00;0.00;;;;;;;13.01;65.46;102561.69;5034393;28;20033;-85
2021/10/13 05:49:59;;;;;;;0.10;0.10;;;;;;;13.00;65.47;102559.94;5033879;28;20096;-86
2021/10/13 05:52:25;;;;;;;0.10;0.10;;;;;;;13.00;65.22;102562.59;5034821;28;20105;-86
2021/10/13 05:54:51;;;;;;;0.10;0.10;;;;;;;13.01;65.70;102565.25;5034814;28;20033;-86
2021/10/13 05:57:17;;;;;;;0.10;0.10;;;;;;;12.97;65.85;102568.78;5028621;28;20391;-87
2021/10/13 05:59:46;;;;;;;0.10;0.10;;;;;;;12.99;65.58;102568.81;5015654;28;20034;-87
2021/10/13 06:02:12;;;;;;;0.10;0.10;;;;;;;13.00;65.77;102578.56;5029399;28;20054;-86
2021/10/13 06:04:38;;;;;;;0.10;0.10;;;;;;;12.99;65.76;102590.09;5023700;28;20033;-86
2021/10/13 06:07:05;;;;;;;0.10;0.10;;;;;;;12.95;66.27;102590.09;5022371;28;20037;-86
2021/10/13 06:09:31;;;;;;;0.63;0.63;;;;;;;12.89;66.06;102598.06;5029796;28;20030;-86
2021/10/13 06:11:57;;;;;;;0.10;0.10;;;;;;;12.98;65.68;102585.66;5027754;28;20037;-84
2021/10/13 06:14:23;;;;;;;0.20;0.20;;;;;;;12.98;65.90;102586.53;5026725;28;20026;-87
2021/10/13 06:16:49;;;;;;;0.10;0.10;;;;;;;12.97;66.66;102583.88;5023850;28;20044;-86
2021/10/13 06:19:15;;;;;;;0.10;0.10;;;;;;;12.99;65.65;102584.78;5020115;28;20500;-86
2021/10/13 06:21:41;;;;;;;0.10;0.10;;;;;;;12.99;66.47;102584.78;5030346;28;20531;-87
2021/10/13 06:24:07;;;;;;;0.00;0.00;;;;;;;13.03;66.31;102591.84;5018536;28;20057;-86
2021/10/13 06:26:34;;;;;;;0.10;0.10;;;;;;;13.06;66.05;102598.06;5025661;28;20029;-86
2021/10/13 06:29:00;;;;;;;0.10;0.10;;;;;;;13.07;66.11;102601.59;5024672;28;20033;-86
2021/10/13 06:31:26;;;;;;;0.10;0.10;;;;;;;13.10;65.70;102602.47;5028098;28;20494;-86
2021/10/13 06:33:54;;;;;;;0.10;0.10;;;;;;;13.14;65.78;102607.81;5028165;28;20060;-85
2021/10/13 06:36:21;;;;;;;0.10;0.10;;;;;;;13.20;65.92;102610.44;5033444;28;20044;-86
2021/10/13 06:38:48;;;;;;;0.10;0.10;;;;;;;13.24;65.59;102615.75;5033666;28;20036;-86
2021/10/13 06:41:14;;;;;;;0.10;0.10;;;;;;;13.29;65.61;102614.88;5019997;28;20477;-87
2021/10/13 06:43:40;;;;;;;0.10;0.10;;;;;;;13.31;65.65;102616.63;5030452;28;20044;-85
2021/10/13 06:46:07;;;;;;;0.10;0.10;;;;;;;13.31;65.70;102615.72;5033175;28;20120;-85
2021/10/13 06:48:33;;;;;;;0.10;0.10;;;;;;;13.33;65.57;102612.16;5033877;28;20026;-80
2021/10/13 06:50:59;;;;;;;0.10;0.10;;;;;;;13.34;65.77;102619.25;5026575;28;20116;-85
2021/10/13 06:53:26;;;;;;;0.10;0.10;;;;;;;13.39;65.66;102624.63;5033120;28;20025;-85
2021/10/13 06:55:54;;;;;;;0.10;0.10;;;;;;;13.42;65.67;102619.25;5022778;28;20033;-84
2021/10/13 06:58:20;;;;;;;0.10;0.10;;;;;;;13.47;65.63;102622.81;5029379;28;20032;-85
2021/10/13 07:00:46;;;;;;;0.10;0.10;;;;;;;13.51;65.91;102627.25;5031059;28;20084;-87
2021/10/13 07:03:13;;;;;;;0.10;0.10;;;;;;;13.56;65.85;102627.22;5032825;28;20025;-86
2021/10/13 07:05:39;;;;;;;0.03;0.03;;;;;;;13.62;65.93;102631.63;5032477;28;20029;-94
2021/10/13 07:08:06;;;;;;;0.10;0.10;;;;;;;13.68;65.32;102628.94;5030092;28;20033;-93
2021/10/13 07:10:32;;;;;;;0.10;0.10;;;;;;;13.72;65.40;102628.94;5021165;28;20024;-88
2021/10/13 07:12:59;;;;;;;0.22;0.22;;;;;;;13.78;65.45;102625.34;5032057;28;20041;-94
2021/10/13 07:15:30;;;;;;;0.10;0.10;;;;;;;13.88;65.48;102634.16;5032964;28;20087;-89
2021/10/13 07:18:18;;;;;;;0.10;0.10;;;;;;;13.95;65.38;102635.03;5027393;28;20508;-89
2021/10/13 07:20:48;;;;;;;0.10;0.10;;;;;;;14.01;65.16;102635.00;5023759;28;20456;-89
2021/10/13 07:23:14;;;;;;;0.10;0.10;;;;;;;14.05;64.89;102637.63;5020292;28;20147;-94
2021/10/13 07:25:41;;;;;;;0.00;0.00;;;;;;;14.09;65.11;102643.81;5023354;28;20049;-92
2021/10/13 07:28:07;;;;;;;0.10;0.10;;;;;;;14.11;64.51;102642.06;5020309;28;20025;-93
2021/10/13 07:30:39;;;;;;;0.10;0.10;;;;;;;14.12;64.75;102638.50;5020354;28;20487;-90
2021/10/13 07:33:06;;;;;;;0.10;0.10;;;;;;;14.11;64.55;102644.72;5022026;28;20033;-88
2021/10/13 07:36:16;;;;;;;0.10;0.10;;;;;;;14.11;64.54;102639.38;5027383;28;20389;-96
2021/10/13 07:38:40;;;;;;;0.10;0.10;;;;;;;14.08;64.73;102642.94;5019423;28;20026;-95
2021/10/13 07:41:06;;;;;;;0.10;0.10;;;;;;;14.10;64.51;102644.72;5020543;28;20111;-87
2021/10/13 07:43:33;;;;;;;0.10;0.10;;;;;;;14.13;64.53;102636.69;5022184;28;20037;-86
2021/10/13 07:46:00;;;;;;;0.10;0.10;;;;;;;14.14;64.68;102644.69;5021983;28;20112;-87
2021/10/13 07:48:27;;;;;;;0.10;0.10;;;;;;;14.19;64.82;102642.00;5019814;28;20470;-86
2021/10/13 07:50:55;;;;;;;0.00;0.00;;;;;;;14.20;64.44;102644.63;5021592;28;20152;-86
2021/10/13 07:53:22;;;;;;;0.10;0.10;;;;;;;14.26;64.64;102640.19;5019204;28;20536;-87
2021/10/13 07:55:50;;;;;;;0.10;0.10;;;;;;;14.33;64.80;102639.22;5014539;28;20036;-86
2021/10/13 07:58:16;;;;;;;0.30;0.30;;;;;;;14.40;64.69;102643.63;5013174;28;20362;-87
2021/10/13 08:00:45;;;;;;;0.13;0.13;;;;;;;14.47;64.64;102639.16;5020839;28;20017;-86
2021/10/13 08:03:12;;;;;;;0.40;0.35;;;;;;;14.53;64.44;102642.66;5023675;28;20021;-89
2021/10/13 08:05:40;;;;;;;0.10;0.10;;;;;;;14.57;64.25;102651.50;5020009;28;20061;-87
2021/10/13 08:08:07;;;;;;;0.10;0.10;;;;;;;14.62;64.05;102643.50;5020329;28;20401;-88
2021/10/13 08:10:34;;;;;;;0.05;0.05;;;;;;;14.67;64.28;102652.38;5021143;28;20048;-85
2021/10/13 08:13:06;;;;;;;0.10;0.10;;;;;;;14.77;64.11;102651.38;5011588;28;20037;-93
2021/10/13 08:15:32;;;;;;;0.10;0.10;;;;;;;14.79;63.52;102654.94;5011405;28;20391;-87
2021/10/13 08:17:58;;;;;;;0.10;0.10;;;;;;;14.90;63.64;102664.63;5011520;28;20030;-92
2021/10/13 08:20:27;;;;;;;0.00;0.00;;;;;;;14.95;62.70;102654.78;5015485;28;20038;-88
2021/10/13 08:22:53;;;;;;;0.38;0.38;;;;;;;15.08;63.03;102663.53;5019137;28;20037;-88
2021/10/13 08:25:20;;;;;;;0.08;0.08;;;;;;;15.15;63.53;102674.19;5034578;28;20029;-88
2021/10/13 08:27:47;;;;;;;0.10;0.10;;;;;;;15.25;63.46;102672.28;5028041;28;20400;-91
2021/10/13 08:30:13;;;;;;;0.10;0.10;;;;;;;15.32;62.84;102679.31;5022968;28;20044;-86
2021/10/13 08:32:39;;;;;;;0.10;0.10;;;;;;;15.26;61.40;102678.50;5026251;28;20026;-86
2021/10/13 08:35:06;;;;;;;0.10;0.10;;;;;;;15.40;61.97;102681.91;5029215;28;20380;-91
2021/10/13 08:37:35;;;;;;;0.10;0.10;;;;;;;15.35;60.48;102683.75;5024740;28;20125;-86
2021/10/13 08:45:13;;;;;;;0.00;0.00;;;;;;;15.41;59.54;102683.69;5274618;22;20102;-91
2021/10/13 08:47:47;;;;;;;0.10;0.10;;;;;;;15.41;57.94;102689.03;5082853;28;20634;-89
2021/10/13 08:50:13;;;;;;;0.10;0.10;;;;;;;15.18;59.76;102676.81;5086596;28;20384;-95
2021/10/13 08:52:39;;;;;;;0.10;0.10;;;;;;;15.16;60.78;102667.91;5094295;28;20032;-89
2021/10/13 08:55:07;;;;;;;0.10;0.10;;;;;;;15.16;61.15;102672.38;5091772;28;20103;-93
2021/10/13 08:57:33;;;;;;;0.10;0.10;;;;;;;15.20;61.50;102674.09;5074528;28;20028;-83
2021/10/13 09:00:04;;;;;;;0.10;0.10;;;;;;;15.28;62.11;102671.38;5074456;28;20028;-91
2021/10/13 09:02:45;;;;;;;0.00;0.00;;;;;;;15.35;62.33;102667.72;5073915;28;20033;-93
2021/10/13 09:05:17;;;;;;;0.10;0.10;;;;;;;15.40;62.69;102676.56;5073670;28;20467;-93
2021/10/13 09:10:32;;;;;;;0.10;0.10;;;;;;;15.43;63.99;102686.34;5085540;27;20495;-86
2021/10/13 09:13:04;;;;;;;0.13;0.13;;;;;;;15.61;63.90;102690.59;5049510;28;20485;-87
2021/10/13 09:15:31;;;;;;;0.10;0.10;;;;;;;15.87;62.95;102686.75;5048233;28;20388;-85
2021/10/13 09:18:03;;;;;;;0.00;0.00;;;;;;;15.98;61.97;102684.84;5048191;28;20025;-80
2021/10/13 09:20:32;;;;;;;0.08;0.08;;;;;;;16.05;62.35;102681.19;5041483;28;20040;-87
2021/10/13 09:23:04;;;;;;;0.10;0.10;;;;;;;16.09;61.49;102674.88;5046824;28;20032;-87
2021/10/13 09:25:32;;;;;;;0.10;0.10;;;;;;;16.13;61.51;102684.59;5042717;28;20029;-87
2021/10/13 09:28:00;;;;;;;0.10;0.10;;;;;;;16.14;61.29;102681.03;5048148;28;20029;-89
2021/10/13 09:33:20;;;;;;;0.10;0.10;;;;;;;16.26;61.03;102682.66;5068457;27;20860;-92
2021/10/13 09:35:50;;;;;;;0.10;0.10;;;;;;;16.22;59.60;102685.41;5065751;28;20424;-89
2021/10/13 09:38:21;;;;;;;0.10;0.10;;;;;;;16.24;60.18;102687.16;5069011;28;20098;-90
2021/10/13 09:40:49;;;;;;;0.10;0.10;;;;;;;16.27;60.48;102680.88;5062531;28;20104;-84
2021/10/13 09:43:36;;;;;;;0.10;0.10;;;;;;;16.33;59.36;102686.13;5051954;28;20108;-83
2021/10/13 09:46:12;;;;;;;0.10;0.10;;;;;;;16.39;59.72;102683.34;5055325;28;20082;-83
2021/10/13 09:48:42;;;;;;;0.10;0.10;;;;;;;16.52;59.44;102686.72;5060904;28;20491;-83
2021/10/13 09:51:24;;;;;;;0.10;0.10;;;;;;;16.68;59.41;102691.84;5061413;28;20052;-83
2021/10/13 09:53:53;;;;;;;0.10;0.10;;;;;;;16.73;59.32;102696.19;5057719;28;20021;-83
2021/10/13 09:56:37;;;;;;;0.10;0.10;;;;;;;16.92;59.45;102687.91;5061921;28;20025;-82
2021/10/13 10:01:58;;;;;;;0.10;0.10;;;;;;;16.90;57.60;102693.25;5062637;28;20391;-83
2021/10/13 10:04:27;;;;;;;0.10;0.10;;;;;;;16.95;55.99;102693.22;5059124;28;20111;-83
2021/10/13 10:06:57;;;;;;;0.10;0.10;;;;;;;16.87;56.89;102687.94;5059594;28;20052;-83
2021/10/13 10:09:26;;;;;;;0.10;0.10;;;;;;;16.89;57.45;102691.47;5045677;28;20395;-83
2021/10/13 10:12:08;;;;;;;0.10;0.10;;;;;;;16.96;57.67;102695.88;5057309;28;20044;-83
2021/10/13 10:17:40;;;;;;;0.10;0.10;;;;;;;17.03;54.68;102698.44;5107054;27;20381;-86
2021/10/13 10:20:07;;;;;;;0.00;0.00;;;;;;;16.99;56.00;102702.94;5103804;28;20036;-83
2021/10/13 10:22:45;;;;;;;0.10;0.10;;;;;;;17.04;57.60;102709.09;5108049;28;20027;-82
2021/10/13 10:25:12;;;;;;;0.10;0.10;;;;;;;16.96;53.95;102703.03;5096961;28;20441;-86
2021/10/13 10:27:39;;;;;;;0.10;0.10;;;;;;;17.01;53.84;102701.16;5101582;28;20024;-84
2021/10/13 10:35:46;;;;;;;0.15;0.15;;;;;;;17.44;53.16;102705.69;5088451;28;20231;-87
2021/10/13 10:38:17;;;;;;;0.10;0.10;;;;;;;17.62;55.77;102707.16;5076790;28;20120;-83
2021/10/13 10:40:43;;;;;;;0.10;0.10;;;;;;;17.71;54.09;102698.03;5077019;28;20036;-82
2021/10/13 10:43:28;;;;;;;0.05;0.05;;;;;;;17.79;52.94;102711.28;5073105;22;20050;-84
2021/10/13 10:45:57;;;;;;;0.38;0.38;;;;;;;17.62;52.63;102700.91;5027169;28;20497;-84
2021/10/13 10:48:26;;;;;;;0.10;0.10;;;;;;;17.53;53.01;102704.63;5026911;28;20030;-82
2021/10/13 10:53:36;;;;;;;0.10;0.10;;;;;;;17.31;53.54;102709.53;5086602;28;20428;-84
2021/10/13 10:59:11;;;;;;;0.20;0.20;;;;;;;17.24;54.50;102700.72;5087664;27;20417;-85
2021/10/13 11:01:39;;;;;;;0.10;0.10;;;;;;;17.20;55.39;102704.38;5060839;28;20037;-85
2021/10/13 11:04:08;;;;;;;0.05;0.05;;;;;;;17.14;53.93;102708.03;5047315;28;20029;-81
2021/10/13 11:06:36;;;;;;;0.10;0.10;;;;;;;17.05;52.99;102702.84;5026476;28;20659;-88
2021/10/13 11:11:54;;;;;;;0.08;0.08;;;;;;;17.12;54.03;102701.84;5066980;28;20462;-85
2021/10/13 11:14:24;;;;;;;0.10;0.10;;;;;;;17.20;54.45;102714.22;5067571;28;20032;-85
2021/10/13 11:16:59;;;;;;;0.20;0.20;;;;;;;17.24;53.88;102703.41;5065415;28;20036;-84
2021/10/13 11:22:12;;;;;;;0.10;0.10;;;;;;;17.20;52.58;102716.91;5067253;28;20398;-82
2021/10/13 11:24:40;;;;;;;0.10;0.10;;;;;;;17.34;53.36;102708.59;5067314;28;20064;-87
2021/10/13 11:27:07;;;;;;;0.08;0.08;;;;;;;17.38;52.67;102704.94;5067504;28;20112;-85
2021/10/13 11:29:36;;;;;;;0.05;0.05;;;;;;;17.35;52.06;102711.25;5067332;28;20581;-84
2021/10/13 11:32:17;;;;;;;0.00;0.00;;;;;;;17.58;53.35;102712.59;5066953;28;20047;-83
2021/10/13 11:35:00;;;;;;;0.10;0.10;;;;;;;17.60;53.95;102710.78;5067275;28;20502;-84
2021/10/13 11:37:28;;;;;;;0.10;0.10;;;;;;;17.87;53.50;102708.44;5066961;28;20052;-83
2021/10/13 11:39:55;;;;;;;0.10;0.10;;;;;;;18.11;51.67;102709.75;5067995;28;20507;-83
2021/10/13 11:42:25;;;;;;;1.20;0.52;;;;;;;18.42;51.21;102709.06;5067908;28;20139;-84
2021/10/13 11:44:55;;;;;;;0.10;0.10;;;;;;;18.39;47.31;102715.38;5068149;28;20453;-86
2021/10/13 11:50:10;;;;;;;0.20;0.20;;;;;;;18.58;48.48;102701.53;5068449;28;20762;-84
2021/10/13 11:52:40;;;;;;;0.10;0.10;;;;;;;18.53;48.49;102714.16;5056112;28;20061;-85
2021/10/13 11:55:11;;;;;;;0.10;0.10;;;;;;;18.50;46.99;102714.25;5067848;28;20039;-85
2021/10/13 11:57:40;;;;;;;0.10;0.10;;;;;;;18.49;49.62;102712.47;5068401;28;20108;-85
2021/10/13 12:05:54;;;;;;;0.00;0.00;;;;;;;18.24;48.94;102715.72;5129546;27;20445;-86
2021/10/13 12:13:52;;;;;;;0.10;0.10;;;;;;;17.94;49.91;102721.72;4990423;28;20415;-89
2021/10/13 12:16:24;;;;;;;0.10;0.10;;;;;;;17.88;48.94;102715.56;4987749;28;20073;-87
2021/10/13 12:18:50;;;;;;;0.10;0.10;;;;;;;17.75;48.69;102713.13;4987819;28;20125;-89
2021/10/13 12:21:19;;;;;;;0.10;0.10;;;;;;;17.76;49.54;102712.22;4987601;28;20027;-88
2021/10/13 12:23:49;;;;;;;0.10;0.10;;;;;;;17.67;48.29;102707.06;4987711;28;20117;-90
2021/10/13 12:26:20;;;;;;;0.10;0.10;;;;;;;17.70;49.18;102706.13;4987407;28;20042;-83
2021/10/13 12:28:51;;;;;;;0.10;0.10;;;;;;;17.66;47.40;102705.28;4987226;28;20527;-82
2021/10/13 12:31:20;;;;;;;0.10;0.10;;;;;;;17.75;48.21;102701.53;4987282;28;20357;-83
2021/10/13 12:33:53;;;;;;;0.10;0.10;;;;;;;17.88;47.66;102710.19;4986770;28;20038;-86